sensor_id;sensor_type;location;lat;lon;timestamp;P1;durP1;ratioP1;P2;durP2;ratioP2
78799;SDS011;68148;55.328;86.106;2023-08-06T00:00:25;1.58;;;0.30;;
78799;SDS011;68148;55.328;86.106;2023-08-06T00:02:52;1.15;;;0.50;;
78799;SDS011;68148;55.328;86.106;2023-08-06T00:05:17;2.25;;;0.50;;
78799;SDS011;68148;55.328;86.106;2023-08-06T00:07:44;6.85;;;0.98;;
78799;SDS011;68148;55.328;86.106;2023-08-06T00:10:10;3.15;;;0.70;;
78799;SDS011;68148;55.328;86.106;2023-08-06T00:12:37;4.72;;;1.60;;
78799;SDS011;68148;55.328;86.106;2023-08-06T00:15:03;2.67;;;0.73;;
78799;SDS011;68148;55.328;86.106;2023-08-06T00:17:29;1.52;;;0.63;;
78799;SDS011;68148;55.328;86.106;2023-08-06T00:19:55;5.07;;;0.77;;
78799;SDS011;68148;55.328;86.106;2023-08-06T00:22:21;5.00;;;0.80;;
78799;SDS011;68148;55.328;86.106;2023-08-06T00:24:47;2.45;;;0.40;;
78799;SDS011;68148;55.328;86.106;2023-08-06T00:27:13;2.28;;;0.77;;
78799;SDS011;68148;55.328;86.106;2023-08-06T00:29:39;2.75;;;0.90;;
78799;SDS011;68148;55.328;86.106;2023-08-06T00:32:05;5.40;;;0.73;;
78799;SDS011;68148;55.328;86.106;2023-08-06T00:34:31;3.83;;;1.05;;
78799;SDS011;68148;55.328;86.106;2023-08-06T00:36:57;3.92;;;1.20;;
78799;SDS011;68148;55.328;86.106;2023-08-06T00:39:22;3.08;;;0.73;;
78799;SDS011;68148;55.328;86.106;2023-08-06T00:41:48;2.85;;;0.85;;
78799;SDS011;68148;55.328;86.106;2023-08-06T00:44:14;6.78;;;0.70;;
78799;SDS011;68148;55.328;86.106;2023-08-06T00:46:40;4.25;;;0.90;;
78799;SDS011;68148;55.328;86.106;2023-08-06T00:49:06;5.68;;;0.90;;
78799;SDS011;68148;55.328;86.106;2023-08-06T00:51:32;3.72;;;0.60;;
78799;SDS011;68148;55.328;86.106;2023-08-06T00:53:59;2.38;;;0.45;;
78799;SDS011;68148;55.328;86.106;2023-08-06T00:56:26;5.70;;;1.05;;
78799;SDS011;68148;55.328;86.106;2023-08-06T00:58:54;3.03;;;1.40;;
78799;SDS011;68148;55.328;86.106;2023-08-06T01:01:20;3.85;;;0.80;;
78799;SDS011;68148;55.328;86.106;2023-08-06T01:03:46;4.85;;;1.08;;
78799;SDS011;68148;55.328;86.106;2023-08-06T01:06:12;1.63;;;0.88;;
78799;SDS011;68148;55.328;86.106;2023-08-06T01:14:41;5.20;;;0.90;;
78799;SDS011;68148;55.328;86.106;2023-08-06T01:16:52;8.70;;;0.68;;
78799;SDS011;68148;55.328;86.106;2023-08-06T01:19:20;3.45;;;1.02;;
78799;SDS011;68148;55.328;86.106;2023-08-06T01:21:47;1.92;;;0.63;;
78799;SDS011;68148;55.328;86.106;2023-08-06T01:24:12;2.55;;;0.55;;
78799;SDS011;68148;55.328;86.106;2023-08-06T01:27:21;4.15;;;0.75;;
78799;SDS011;68148;55.328;86.106;2023-08-06T01:29:31;5.93;;;0.65;;
78799;SDS011;68148;55.328;86.106;2023-08-06T01:32:08;5.53;;;1.25;;
78799;SDS011;68148;55.328;86.106;2023-08-06T01:34:37;5.78;;;1.40;;
78799;SDS011;68148;55.328;86.106;2023-08-06T01:37:05;8.02;;;1.13;;
78799;SDS011;68148;55.328;86.106;2023-08-06T01:39:34;6.25;;;2.08;;
78799;SDS011;68148;55.328;86.106;2023-08-06T01:42:00;7.43;;;1.17;;
78799;SDS011;68148;55.328;86.106;2023-08-06T01:44:26;5.43;;;1.40;;
78799;SDS011;68148;55.328;86.106;2023-08-06T01:46:52;6.43;;;1.33;;
78799;SDS011;68148;55.328;86.106;2023-08-06T01:49:19;7.50;;;1.70;;
78799;SDS011;68148;55.328;86.106;2023-08-06T01:51:45;5.50;;;1.00;;
78799;SDS011;68148;55.328;86.106;2023-08-06T01:54:12;5.95;;;1.17;;
78799;SDS011;68148;55.328;86.106;2023-08-06T01:56:38;7.28;;;1.50;;
78799;SDS011;68148;55.328;86.106;2023-08-06T01:59:04;4.85;;;0.65;;
78799;SDS011;68148;55.328;86.106;2023-08-06T02:01:29;8.30;;;1.10;;
78799;SDS011;68148;55.328;86.106;2023-08-06T02:03:55;3.28;;;0.70;;
78799;SDS011;68148;55.328;86.106;2023-08-06T02:06:21;5.60;;;0.80;;
78799;SDS011;68148;55.328;86.106;2023-08-06T02:08:47;4.10;;;1.05;;
78799;SDS011;68148;55.328;86.106;2023-08-06T02:11:14;3.47;;;1.08;;
78799;SDS011;68148;55.328;86.106;2023-08-06T02:13:39;1.40;;;0.70;;
78799;SDS011;68148;55.328;86.106;2023-08-06T02:16:08;0.73;;;0.50;;
78799;SDS011;68148;55.328;86.106;2023-08-06T02:18:35;4.40;;;1.00;;
78799;SDS011;68148;55.328;86.106;2023-08-06T02:21:01;2.45;;;1.00;;
78799;SDS011;68148;55.328;86.106;2023-08-06T02:23:27;2.15;;;0.40;;
78799;SDS011;68148;55.328;86.106;2023-08-06T02:26:02;1.95;;;0.30;;
78799;SDS011;68148;55.328;86.106;2023-08-06T02:28:30;0.88;;;0.47;;
78799;SDS011;68148;55.328;86.106;2023-08-06T02:30:57;3.22;;;0.60;;
78799;SDS011;68148;55.328;86.106;2023-08-06T02:33:23;2.15;;;0.38;;
78799;SDS011;68148;55.328;86.106;2023-08-06T02:35:49;1.50;;;0.57;;
78799;SDS011;68148;55.328;86.106;2023-08-06T02:38:15;2.97;;;0.70;;
78799;SDS011;68148;55.328;86.106;2023-08-06T02:40:44;1.85;;;0.70;;
78799;SDS011;68148;55.328;86.106;2023-08-06T02:43:11;3.47;;;0.50;;
78799;SDS011;68148;55.328;86.106;2023-08-06T02:45:37;1.70;;;0.70;;
78799;SDS011;68148;55.328;86.106;2023-08-06T02:48:03;0.73;;;0.30;;
78799;SDS011;68148;55.328;86.106;2023-08-06T02:50:29;2.20;;;0.68;;
78799;SDS011;68148;55.328;86.106;2023-08-06T02:52:55;1.35;;;0.68;;
78799;SDS011;68148;55.328;86.106;2023-08-06T02:55:22;1.45;;;0.60;;
78799;SDS011;68148;55.328;86.106;2023-08-06T02:57:47;1.52;;;0.50;;
78799;SDS011;68148;55.328;86.106;2023-08-06T03:00:13;0.70;;;0.55;;
78799;SDS011;68148;55.328;86.106;2023-08-06T03:02:39;1.08;;;0.30;;
78799;SDS011;68148;55.328;86.106;2023-08-06T03:05:05;0.95;;;0.65;;
78799;SDS011;68148;55.328;86.106;2023-08-06T03:07:31;0.80;;;0.50;;
78799;SDS011;68148;55.328;86.106;2023-08-06T03:09:57;0.52;;;0.40;;
78799;SDS011;68148;55.328;86.106;2023-08-06T03:12:23;1.02;;;0.60;;
78799;SDS011;68148;55.328;86.106;2023-08-06T03:17:16;0.68;;;0.50;;
78799;SDS011;68148;55.328;86.106;2023-08-06T03:19:47;1.25;;;0.98;;
78799;SDS011;68148;55.328;86.106;2023-08-06T03:22:14;2.67;;;0.60;;
78799;SDS011;68148;55.328;86.106;2023-08-06T03:24:45;2.72;;;0.50;;
78799;SDS011;68148;55.328;86.106;2023-08-06T03:27:11;2.05;;;0.43;;
78799;SDS011;68148;55.328;86.106;2023-08-06T03:29:37;1.73;;;0.60;;
78799;SDS011;68148;55.328;86.106;2023-08-06T03:32:05;0.80;;;0.52;;
78799;SDS011;68148;55.328;86.106;2023-08-06T03:34:32;0.80;;;0.52;;
78799;SDS011;68148;55.328;86.106;2023-08-06T03:37:05;1.02;;;0.68;;
78799;SDS011;68148;55.328;86.106;2023-08-06T03:39:31;0.73;;;0.47;;
78799;SDS011;68148;55.328;86.106;2023-08-06T03:41:57;1.65;;;0.32;;
78799;SDS011;68148;55.328;86.106;2023-08-06T03:44:22;1.67;;;0.80;;
78799;SDS011;68148;55.328;86.106;2023-08-06T03:46:48;3.35;;;0.88;;
78799;SDS011;68148;55.328;86.106;2023-08-06T03:49:14;1.48;;;0.32;;
78799;SDS011;68148;55.328;86.106;2023-08-06T03:51:40;2.65;;;0.60;;
78799;SDS011;68148;55.328;86.106;2023-08-06T03:54:05;1.02;;;0.60;;
78799;SDS011;68148;55.328;86.106;2023-08-06T03:56:32;2.95;;;0.75;;
78799;SDS011;68148;55.328;86.106;2023-08-06T03:58:57;2.28;;;0.63;;
78799;SDS011;68148;55.328;86.106;2023-08-06T04:01:24;0.60;;;0.60;;
78799;SDS011;68148;55.328;86.106;2023-08-06T04:03:50;0.95;;;0.70;;
78799;SDS011;68148;55.328;86.106;2023-08-06T04:06:15;2.83;;;0.40;;
78799;SDS011;68148;55.328;86.106;2023-08-06T04:08:41;3.15;;;0.60;;
78799;SDS011;68148;55.328;86.106;2023-08-06T04:11:07;2.92;;;0.82;;
78799;SDS011;68148;55.328;86.106;2023-08-06T04:13:33;0.60;;;0.22;;
78799;SDS011;68148;55.328;86.106;2023-08-06T04:16:02;1.38;;;0.65;;
78799;SDS011;68148;55.328;86.106;2023-08-06T04:18:28;4.80;;;0.93;;
78799;SDS011;68148;55.328;86.106;2023-08-06T04:20:54;1.48;;;0.80;;
78799;SDS011;68148;55.328;86.106;2023-08-06T04:23:20;2.58;;;0.57;;
78799;SDS011;68148;55.328;86.106;2023-08-06T04:25:46;1.08;;;0.65;;
78799;SDS011;68148;55.328;86.106;2023-08-06T04:28:12;1.33;;;0.65;;
78799;SDS011;68148;55.328;86.106;2023-08-06T04:30:38;1.42;;;0.77;;
78799;SDS011;68148;55.328;86.106;2023-08-06T04:33:04;1.65;;;0.57;;
78799;SDS011;68148;55.328;86.106;2023-08-06T04:35:30;1.20;;;0.65;;
78799;SDS011;68148;55.328;86.106;2023-08-06T04:37:56;2.05;;;0.30;;
78799;SDS011;68148;55.328;86.106;2023-08-06T04:40:22;1.20;;;0.75;;
78799;SDS011;68148;55.328;86.106;2023-08-06T04:42:47;3.97;;;0.70;;
78799;SDS011;68148;55.328;86.106;2023-08-06T04:45:13;1.65;;;0.70;;
78799;SDS011;68148;55.328;86.106;2023-08-06T04:47:40;1.55;;;1.23;;
78799;SDS011;68148;55.328;86.106;2023-08-06T04:50:05;3.67;;;0.70;;
78799;SDS011;68148;55.328;86.106;2023-08-06T04:52:31;3.05;;;0.63;;
78799;SDS011;68148;55.328;86.106;2023-08-06T04:54:57;1.10;;;0.40;;
78799;SDS011;68148;55.328;86.106;2023-08-06T04:57:23;1.33;;;0.60;;
78799;SDS011;68148;55.328;86.106;2023-08-06T05:02:16;0.98;;;0.70;;
78799;SDS011;68148;55.328;86.106;2023-08-06T05:04:42;2.47;;;0.57;;
78799;SDS011;68148;55.328;86.106;2023-08-06T05:07:08;1.52;;;0.82;;
78799;SDS011;68148;55.328;86.106;2023-08-06T05:09:35;1.42;;;0.73;;
78799;SDS011;68148;55.328;86.106;2023-08-06T05:12:01;1.45;;;0.60;;
78799;SDS011;68148;55.328;86.106;2023-08-06T05:14:29;5.18;;;1.75;;
78799;SDS011;68148;55.328;86.106;2023-08-06T05:16:55;2.75;;;1.05;;
78799;SDS011;68148;55.328;86.106;2023-08-06T05:19:20;2.17;;;1.17;;
78799;SDS011;68148;55.328;86.106;2023-08-06T05:21:46;1.80;;;1.10;;
78799;SDS011;68148;55.328;86.106;2023-08-06T05:24:12;1.80;;;1.13;;
78799;SDS011;68148;55.328;86.106;2023-08-06T05:26:37;2.38;;;0.57;;
78799;SDS011;68148;55.328;86.106;2023-08-06T05:29:04;1.98;;;0.60;;
78799;SDS011;68148;55.328;86.106;2023-08-06T05:31:31;1.17;;;0.73;;
78799;SDS011;68148;55.328;86.106;2023-08-06T05:33:56;2.58;;;0.70;;
78799;SDS011;68148;55.328;86.106;2023-08-06T05:36:22;5.18;;;0.88;;
78799;SDS011;68148;55.328;86.106;2023-08-06T05:38:48;6.03;;;3.08;;
78799;SDS011;68148;55.328;86.106;2023-08-06T05:41:14;3.17;;;1.15;;
78799;SDS011;68148;55.328;86.106;2023-08-06T05:43:39;1.50;;;0.85;;
78799;SDS011;68148;55.328;86.106;2023-08-06T05:46:05;2.05;;;0.88;;
78799;SDS011;68148;55.328;86.106;2023-08-06T05:48:31;3.90;;;0.93;;
78799;SDS011;68148;55.328;86.106;2023-08-06T05:50:56;1.77;;;1.13;;
78799;SDS011;68148;55.328;86.106;2023-08-06T05:53:22;1.98;;;0.77;;
78799;SDS011;68148;55.328;86.106;2023-08-06T05:55:48;1.50;;;1.08;;
78799;SDS011;68148;55.328;86.106;2023-08-06T05:58:16;2.33;;;1.30;;
78799;SDS011;68148;55.328;86.106;2023-08-06T06:00:42;2.08;;;0.82;;
78799;SDS011;68148;55.328;86.106;2023-08-06T06:03:08;2.40;;;0.75;;
78799;SDS011;68148;55.328;86.106;2023-08-06T06:05:34;4.35;;;0.75;;
78799;SDS011;68148;55.328;86.106;2023-08-06T06:08:02;3.70;;;1.00;;
78799;SDS011;68148;55.328;86.106;2023-08-06T06:10:28;6.95;;;0.93;;
78799;SDS011;68148;55.328;86.106;2023-08-06T06:12:54;2.53;;;1.00;;
78799;SDS011;68148;55.328;86.106;2023-08-06T06:15:19;3.97;;;0.80;;
78799;SDS011;68148;55.328;86.106;2023-08-06T06:17:45;2.45;;;0.90;;
78799;SDS011;68148;55.328;86.106;2023-08-06T06:20:11;2.20;;;1.17;;
78799;SDS011;68148;55.328;86.106;2023-08-06T06:22:37;3.67;;;1.45;;
78799;SDS011;68148;55.328;86.106;2023-08-06T06:25:05;1.70;;;0.90;;
78799;SDS011;68148;55.328;86.106;2023-08-06T06:27:37;1.55;;;1.02;;
78799;SDS011;68148;55.328;86.106;2023-08-06T06:30:03;1.52;;;0.95;;
78799;SDS011;68148;55.328;86.106;2023-08-06T06:32:29;2.58;;;0.73;;
78799;SDS011;68148;55.328;86.106;2023-08-06T06:34:55;1.70;;;1.00;;
78799;SDS011;68148;55.328;86.106;2023-08-06T06:37:21;1.38;;;0.90;;
78799;SDS011;68148;55.328;86.106;2023-08-06T06:39:46;1.95;;;1.10;;
78799;SDS011;68148;55.328;86.106;2023-08-06T06:42:12;1.83;;;1.23;;
78799;SDS011;68148;55.328;86.106;2023-08-06T06:44:41;2.45;;;0.77;;
78799;SDS011;68148;55.328;86.106;2023-08-06T06:47:06;1.60;;;0.93;;
78799;SDS011;68148;55.328;86.106;2023-08-06T06:49:32;4.72;;;0.93;;
78799;SDS011;68148;55.328;86.106;2023-08-06T06:51:58;2.45;;;0.80;;
78799;SDS011;68148;55.328;86.106;2023-08-06T06:54:24;2.67;;;1.00;;
78799;SDS011;68148;55.328;86.106;2023-08-06T06:56:50;1.63;;;1.00;;
78799;SDS011;68148;55.328;86.106;2023-08-06T06:59:15;3.40;;;1.02;;
78799;SDS011;68148;55.328;86.106;2023-08-06T07:01:41;1.88;;;1.25;;
78799;SDS011;68148;55.328;86.106;2023-08-06T07:04:07;2.17;;;1.13;;
78799;SDS011;68148;55.328;86.106;2023-08-06T07:06:33;2.65;;;1.30;;
78799;SDS011;68148;55.328;86.106;2023-08-06T07:08:59;1.92;;;1.08;;
78799;SDS011;68148;55.328;86.106;2023-08-06T07:11:25;3.08;;;1.20;;
78799;SDS011;68148;55.328;86.106;2023-08-06T07:13:55;1.98;;;1.10;;
78799;SDS011;68148;55.328;86.106;2023-08-06T07:16:24;1.88;;;1.23;;
78799;SDS011;68148;55.328;86.106;2023-08-06T07:18:51;2.22;;;1.08;;
78799;SDS011;68148;55.328;86.106;2023-08-06T07:21:18;5.38;;;1.35;;
78799;SDS011;68148;55.328;86.106;2023-08-06T07:23:44;2.38;;;1.30;;
78799;SDS011;68148;55.328;86.106;2023-08-06T07:26:10;5.05;;;1.50;;
78799;SDS011;68148;55.328;86.106;2023-08-06T07:28:37;2.20;;;1.13;;
78799;SDS011;68148;55.328;86.106;2023-08-06T07:31:03;2.40;;;1.17;;
78799;SDS011;68148;55.328;86.106;2023-08-06T07:33:29;1.60;;;1.00;;
78799;SDS011;68148;55.328;86.106;2023-08-06T07:35:55;1.83;;;0.90;;
78799;SDS011;68148;55.328;86.106;2023-08-06T07:38:20;1.58;;;1.00;;
78799;SDS011;68148;55.328;86.106;2023-08-06T07:40:46;6.65;;;1.70;;
78799;SDS011;68148;55.328;86.106;2023-08-06T07:43:12;2.35;;;1.10;;
78799;SDS011;68148;55.328;86.106;2023-08-06T07:45:38;4.50;;;1.25;;
78799;SDS011;68148;55.328;86.106;2023-08-06T07:48:04;2.10;;;1.30;;
78799;SDS011;68148;55.328;86.106;2023-08-06T07:50:30;2.85;;;1.50;;
78799;SDS011;68148;55.328;86.106;2023-08-06T07:52:56;2.70;;;0.98;;
78799;SDS011;68148;55.328;86.106;2023-08-06T07:55:21;2.20;;;1.30;;
78799;SDS011;68148;55.328;86.106;2023-08-06T07:57:47;2.60;;;1.00;;
78799;SDS011;68148;55.328;86.106;2023-08-06T08:00:13;2.00;;;1.23;;
78799;SDS011;68148;55.328;86.106;2023-08-06T08:02:39;2.25;;;0.88;;
78799;SDS011;68148;55.328;86.106;2023-08-06T08:05:06;3.42;;;1.30;;
78799;SDS011;68148;55.328;86.106;2023-08-06T08:07:32;3.65;;;1.42;;
78799;SDS011;68148;55.328;86.106;2023-08-06T08:09:57;2.90;;;1.08;;
78799;SDS011;68148;55.328;86.106;2023-08-06T08:12:23;1.52;;;0.95;;
78799;SDS011;68148;55.328;86.106;2023-08-06T08:14:49;2.60;;;1.35;;
78799;SDS011;68148;55.328;86.106;2023-08-06T08:17:15;2.58;;;1.33;;
78799;SDS011;68148;55.328;86.106;2023-08-06T08:19:41;2.90;;;1.33;;
78799;SDS011;68148;55.328;86.106;2023-08-06T08:22:07;3.45;;;1.50;;
78799;SDS011;68148;55.328;86.106;2023-08-06T08:24:34;2.47;;;1.40;;
78799;SDS011;68148;55.328;86.106;2023-08-06T08:27:01;2.00;;;1.00;;
78799;SDS011;68148;55.328;86.106;2023-08-06T08:29:26;2.72;;;1.20;;
78799;SDS011;68148;55.328;86.106;2023-08-06T08:31:52;1.77;;;1.10;;
78799;SDS011;68148;55.328;86.106;2023-08-06T08:34:18;5.63;;;1.40;;
78799;SDS011;68148;55.328;86.106;2023-08-06T08:36:44;4.00;;;1.40;;
78799;SDS011;68148;55.328;86.106;2023-08-06T08:39:10;2.17;;;0.85;;
78799;SDS011;68148;55.328;86.106;2023-08-06T08:41:37;2.80;;;1.38;;
78799;SDS011;68148;55.328;86.106;2023-08-06T08:44:03;3.45;;;1.92;;
78799;SDS011;68148;55.328;86.106;2023-08-06T08:46:33;2.20;;;1.33;;
78799;SDS011;68148;55.328;86.106;2023-08-06T08:49:00;3.90;;;1.38;;
78799;SDS011;68148;55.328;86.106;2023-08-06T08:51:27;3.25;;;1.40;;
78799;SDS011;68148;55.328;86.106;2023-08-06T08:53:54;2.33;;;1.17;;
78799;SDS011;68148;55.328;86.106;2023-08-06T08:56:21;2.53;;;0.90;;
78799;SDS011;68148;55.328;86.106;2023-08-06T08:58:47;5.88;;;1.60;;
78799;SDS011;68148;55.328;86.106;2023-08-06T09:01:13;2.20;;;1.50;;
78799;SDS011;68148;55.328;86.106;2023-08-06T09:03:41;2.55;;;1.20;;
78799;SDS011;68148;55.328;86.106;2023-08-06T09:06:10;2.28;;;1.20;;
78799;SDS011;68148;55.328;86.106;2023-08-06T09:11:35;2.15;;;1.30;;
78799;SDS011;68148;55.328;86.106;2023-08-06T09:14:07;2.90;;;1.10;;
78799;SDS011;68148;55.328;86.106;2023-08-06T09:16:36;3.33;;;1.50;;
78799;SDS011;68148;55.328;86.106;2023-08-06T09:19:07;4.25;;;1.30;;
78799;SDS011;68148;55.328;86.106;2023-08-06T09:21:36;2.78;;;1.20;;
78799;SDS011;68148;55.328;86.106;2023-08-06T09:24:07;4.45;;;1.67;;
78799;SDS011;68148;55.328;86.106;2023-08-06T09:26:40;3.47;;;1.88;;
78799;SDS011;68148;55.328;86.106;2023-08-06T09:29:08;3.08;;;1.13;;
78799;SDS011;68148;55.328;86.106;2023-08-06T09:31:44;4.45;;;1.30;;
78799;SDS011;68148;55.328;86.106;2023-08-06T09:34:18;3.10;;;1.05;;
78799;SDS011;68148;55.328;86.106;2023-08-06T09:36:47;2.88;;;1.40;;
78799;SDS011;68148;55.328;86.106;2023-08-06T09:39:27;3.60;;;1.27;;
78799;SDS011;68148;55.328;86.106;2023-08-06T09:42:00;1.73;;;1.00;;
78799;SDS011;68148;55.328;86.106;2023-08-06T09:44:30;2.10;;;1.30;;
78799;SDS011;68148;55.328;86.106;2023-08-06T09:46:57;4.78;;;1.88;;
78799;SDS011;68148;55.328;86.106;2023-08-06T09:51:54;1.90;;;1.10;;
78799;SDS011;68148;55.328;86.106;2023-08-06T09:54:20;2.60;;;0.90;;
78799;SDS011;68148;55.328;86.106;2023-08-06T09:56:48;4.57;;;1.60;;
78799;SDS011;68148;55.328;86.106;2023-08-06T09:59:14;3.50;;;2.15;;
78799;SDS011;68148;55.328;86.106;2023-08-06T10:01:40;1.77;;;1.20;;
78799;SDS011;68148;55.328;86.106;2023-08-06T10:04:06;2.55;;;1.40;;
78799;SDS011;68148;55.328;86.106;2023-08-06T10:06:35;2.45;;;1.13;;
78799;SDS011;68148;55.328;86.106;2023-08-06T10:09:02;2.47;;;1.27;;
78799;SDS011;68148;55.328;86.106;2023-08-06T10:11:28;3.78;;;1.65;;
78799;SDS011;68148;55.328;86.106;2023-08-06T10:14:00;4.45;;;2.00;;
78799;SDS011;68148;55.328;86.106;2023-08-06T10:17:00;2.30;;;1.27;;
78799;SDS011;68148;55.328;86.106;2023-08-06T10:19:27;7.65;;;3.38;;
78799;SDS011;68148;55.328;86.106;2023-08-06T10:24:46;4.60;;;1.60;;
78799;SDS011;68148;55.328;86.106;2023-08-06T10:27:12;2.83;;;1.65;;
78799;SDS011;68148;55.328;86.106;2023-08-06T10:29:38;5.03;;;1.50;;
78799;SDS011;68148;55.328;86.106;2023-08-06T10:32:04;2.97;;;1.38;;
78799;SDS011;68148;55.328;86.106;2023-08-06T10:34:52;2.63;;;1.60;;
78799;SDS011;68148;55.328;86.106;2023-08-06T10:37:22;2.78;;;1.33;;
78799;SDS011;68148;55.328;86.106;2023-08-06T10:39:48;2.10;;;1.10;;
78799;SDS011;68148;55.328;86.106;2023-08-06T10:42:36;1.80;;;0.88;;
78799;SDS011;68148;55.328;86.106;2023-08-06T10:47:42;2.42;;;1.38;;
78799;SDS011;68148;55.328;86.106;2023-08-06T10:50:11;6.13;;;1.80;;
78799;SDS011;68148;55.328;86.106;2023-08-06T10:52:38;5.05;;;1.65;;
78799;SDS011;68148;55.328;86.106;2023-08-06T10:55:04;2.85;;;1.40;;
78799;SDS011;68148;55.328;86.106;2023-08-06T10:57:31;4.90;;;1.70;;
78799;SDS011;68148;55.328;86.106;2023-08-06T10:59:57;8.18;;;1.92;;
78799;SDS011;68148;55.328;86.106;2023-08-06T11:02:22;7.45;;;2.15;;
78799;SDS011;68148;55.328;86.106;2023-08-06T11:04:48;4.38;;;1.60;;
78799;SDS011;68148;55.328;86.106;2023-08-06T11:07:14;2.63;;;1.15;;
78799;SDS011;68148;55.328;86.106;2023-08-06T11:09:40;4.03;;;2.30;;
78799;SDS011;68148;55.328;86.106;2023-08-06T11:12:09;4.13;;;2.13;;
78799;SDS011;68148;55.328;86.106;2023-08-06T11:14:35;2.38;;;1.20;;
78799;SDS011;68148;55.328;86.106;2023-08-06T11:17:02;2.47;;;1.40;;
78799;SDS011;68148;55.328;86.106;2023-08-06T11:19:28;2.95;;;1.83;;
78799;SDS011;68148;55.328;86.106;2023-08-06T11:21:54;3.47;;;1.15;;
78799;SDS011;68148;55.328;86.106;2023-08-06T11:24:21;2.83;;;1.90;;
78799;SDS011;68148;55.328;86.106;2023-08-06T11:26:49;4.18;;;1.70;;
78799;SDS011;68148;55.328;86.106;2023-08-06T11:29:15;5.93;;;1.98;;
78799;SDS011;68148;55.328;86.106;2023-08-06T11:31:42;6.05;;;2.38;;
78799;SDS011;68148;55.328;86.106;2023-08-06T11:34:08;5.85;;;1.90;;
78799;SDS011;68148;55.328;86.106;2023-08-06T11:36:35;3.00;;;2.00;;
78799;SDS011;68148;55.328;86.106;2023-08-06T11:39:05;4.35;;;1.70;;
78799;SDS011;68148;55.328;86.106;2023-08-06T11:41:32;2.55;;;1.25;;
78799;SDS011;68148;55.328;86.106;2023-08-06T11:43:58;6.40;;;2.90;;
78799;SDS011;68148;55.328;86.106;2023-08-06T11:46:25;8.07;;;3.35;;
78799;SDS011;68148;55.328;86.106;2023-08-06T11:48:54;6.38;;;1.85;;
78799;SDS011;68148;55.328;86.106;2023-08-06T11:51:24;3.72;;;1.92;;
78799;SDS011;68148;55.328;86.106;2023-08-06T11:53:51;3.85;;;2.05;;
78799;SDS011;68148;55.328;86.106;2023-08-06T11:56:19;5.53;;;1.98;;
78799;SDS011;68148;55.328;86.106;2023-08-06T11:58:45;4.25;;;2.03;;
78799;SDS011;68148;55.328;86.106;2023-08-06T12:01:11;2.67;;;1.60;;
78799;SDS011;68148;55.328;86.106;2023-08-06T12:03:39;10.68;;;2.25;;
78799;SDS011;68148;55.328;86.106;2023-08-06T12:06:05;4.65;;;1.98;;
78799;SDS011;68148;55.328;86.106;2023-08-06T12:08:31;4.68;;;2.47;;
78799;SDS011;68148;55.328;86.106;2023-08-06T12:10:57;3.58;;;2.38;;
78799;SDS011;68148;55.328;86.106;2023-08-06T12:15:50;2.83;;;1.90;;
78799;SDS011;68148;55.328;86.106;2023-08-06T12:18:15;6.38;;;3.47;;
78799;SDS011;68148;55.328;86.106;2023-08-06T12:20:41;5.43;;;2.70;;
78799;SDS011;68148;55.328;86.106;2023-08-06T12:23:07;9.68;;;2.80;;
78799;SDS011;68148;55.328;86.106;2023-08-06T12:25:33;6.65;;;2.25;;
78799;SDS011;68148;55.328;86.106;2023-08-06T12:27:59;6.40;;;2.95;;
78799;SDS011;68148;55.328;86.106;2023-08-06T12:30:24;6.28;;;2.60;;
78799;SDS011;68148;55.328;86.106;2023-08-06T12:32:50;7.07;;;2.92;;
78799;SDS011;68148;55.328;86.106;2023-08-06T12:35:16;11.73;;;3.95;;
78799;SDS011;68148;55.328;86.106;2023-08-06T12:37:42;18.08;;;5.25;;
78799;SDS011;68148;55.328;86.106;2023-08-06T12:40:07;10.60;;;4.97;;
78799;SDS011;68148;55.328;86.106;2023-08-06T12:42:34;19.33;;;7.47;;
78799;SDS011;68148;55.328;86.106;2023-08-06T12:45:00;9.60;;;4.55;;
78799;SDS011;68148;55.328;86.106;2023-08-06T12:47:25;13.25;;;7.25;;
78799;SDS011;68148;55.328;86.106;2023-08-06T12:49:51;7.43;;;2.45;;
78799;SDS011;68148;55.328;86.106;2023-08-06T12:52:17;7.05;;;1.85;;
78799;SDS011;68148;55.328;86.106;2023-08-06T12:54:43;6.95;;;2.95;;
78799;SDS011;68148;55.328;86.106;2023-08-06T12:57:08;6.43;;;2.38;;
78799;SDS011;68148;55.328;86.106;2023-08-06T12:59:34;14.23;;;6.35;;
78799;SDS011;68148;55.328;86.106;2023-08-06T13:02:00;5.88;;;2.40;;
78799;SDS011;68148;55.328;86.106;2023-08-06T13:04:26;5.93;;;2.08;;
78799;SDS011;68148;55.328;86.106;2023-08-06T13:06:52;7.05;;;2.92;;
78799;SDS011;68148;55.328;86.106;2023-08-06T13:09:17;4.53;;;2.55;;
78799;SDS011;68148;55.328;86.106;2023-08-06T13:11:44;6.13;;;2.58;;
78799;SDS011;68148;55.328;86.106;2023-08-06T13:14:10;6.57;;;2.80;;
78799;SDS011;68148;55.328;86.106;2023-08-06T13:16:38;6.13;;;2.75;;
78799;SDS011;68148;55.328;86.106;2023-08-06T13:19:06;6.05;;;2.67;;
78799;SDS011;68148;55.328;86.106;2023-08-06T13:21:35;10.40;;;4.50;;
78799;SDS011;68148;55.328;86.106;2023-08-06T13:24:24;10.57;;;5.50;;
78799;SDS011;68148;55.328;86.106;2023-08-06T13:26:49;11.70;;;5.45;;
78799;SDS011;68148;55.328;86.106;2023-08-06T13:29:15;13.95;;;6.90;;
78799;SDS011;68148;55.328;86.106;2023-08-06T13:31:41;13.35;;;4.05;;
78799;SDS011;68148;55.328;86.106;2023-08-06T13:34:07;7.90;;;4.85;;
78799;SDS011;68148;55.328;86.106;2023-08-06T13:36:33;7.80;;;3.88;;
78799;SDS011;68148;55.328;86.106;2023-08-06T13:38:58;8.02;;;4.30;;
78799;SDS011;68148;55.328;86.106;2023-08-06T13:41:24;11.32;;;4.43;;
78799;SDS011;68148;55.328;86.106;2023-08-06T13:43:50;14.13;;;6.00;;
78799;SDS011;68148;55.328;86.106;2023-08-06T13:46:17;11.15;;;4.97;;
78799;SDS011;68148;55.328;86.106;2023-08-06T13:48:43;15.88;;;7.97;;
78799;SDS011;68148;55.328;86.106;2023-08-06T13:51:10;19.48;;;8.98;;
78799;SDS011;68148;55.328;86.106;2023-08-06T13:53:37;5.90;;;3.70;;
78799;SDS011;68148;55.328;86.106;2023-08-06T13:56:04;11.52;;;5.70;;
78799;SDS011;68148;55.328;86.106;2023-08-06T13:58:30;6.55;;;3.60;;
78799;SDS011;68148;55.328;86.106;2023-08-06T14:00:56;9.75;;;4.82;;
78799;SDS011;68148;55.328;86.106;2023-08-06T14:03:22;8.02;;;4.75;;
78799;SDS011;68148;55.328;86.106;2023-08-06T14:05:48;11.23;;;5.40;;
78799;SDS011;68148;55.328;86.106;2023-08-06T14:08:13;9.73;;;4.45;;
78799;SDS011;68148;55.328;86.106;2023-08-06T14:10:40;8.18;;;4.60;;
78799;SDS011;68148;55.328;86.106;2023-08-06T14:13:07;11.05;;;7.03;;
78799;SDS011;68148;55.328;86.106;2023-08-06T14:15:32;12.00;;;3.72;;
78799;SDS011;68148;55.328;86.106;2023-08-06T14:17:58;6.13;;;3.22;;
78799;SDS011;68148;55.328;86.106;2023-08-06T14:20:24;9.30;;;4.45;;
78799;SDS011;68148;55.328;86.106;2023-08-06T14:22:50;11.98;;;6.15;;
78799;SDS011;68148;55.328;86.106;2023-08-06T14:25:15;12.65;;;4.82;;
78799;SDS011;68148;55.328;86.106;2023-08-06T14:27:41;14.40;;;3.67;;
78799;SDS011;68148;55.328;86.106;2023-08-06T14:30:07;5.97;;;3.85;;
78799;SDS011;68148;55.328;86.106;2023-08-06T14:32:33;10.82;;;3.55;;
78799;SDS011;68148;55.328;86.106;2023-08-06T14:34:58;7.63;;;3.70;;
78799;SDS011;68148;55.328;86.106;2023-08-06T14:37:24;10.43;;;3.60;;
78799;SDS011;68148;55.328;86.106;2023-08-06T14:39:50;6.88;;;3.00;;
78799;SDS011;68148;55.328;86.106;2023-08-06T14:42:17;10.60;;;2.90;;
78799;SDS011;68148;55.328;86.106;2023-08-06T14:44:43;6.32;;;3.05;;
78799;SDS011;68148;55.328;86.106;2023-08-06T14:47:08;8.60;;;3.35;;
78799;SDS011;68148;55.328;86.106;2023-08-06T14:49:35;5.85;;;2.40;;
78799;SDS011;68148;55.328;86.106;2023-08-06T14:52:01;7.28;;;2.80;;
78799;SDS011;68148;55.328;86.106;2023-08-06T14:54:27;6.18;;;3.20;;